Date,TemperatureHighF,TemperatureAvgF,TemperatureLowF,DewpointHighF,DewpointAvgF,DewpointLowF,HumidityHigh,HumidityAvg,HumidityLow,PressureMaxIn,PressureMinIn,WindSpeedMaxMPH,WindSpeedAvgMPH,GustSpeedMaxMPH,PrecipitationSumIn
2013-1-1,28.7,19.6,13.3,16.0,10.4,5.1,77,67,51,30.61,30.38,4,0,7,0.00
2013-1-2,14.3,9.4,6.0,5.3,2.1,-0.6,78,72,62,30.79,30.55,2,0,3,0.00
2013-1-3,12.9,8.7,4.5,5.2,1.9,-1.7,79,73,68,30.70,30.52,2,0,2,0.00
2013-1-4,31.5,19.3,9.0,21.9,10.2,0.9,74,67,56,30.55,30.39,5,0,8,0.00
2013-1-5,29.5,21.6,16.7,20.5,14.0,10.0,79,72,63,30.46,30.30,3,0,4,0.00
2013-1-6,34.7,26.5,19.7,22.8,17.5,12.1,77,69,45,30.30,30.05,4,0,5,0.00
2013-1-7,38.3,31.9,26.7,26.2,20.3,15.0,75,62,54,30.10,29.77,11,0,13,0.00
2013-1-8,37.5,34.6,27.9,26.7,21.1,13.0,75,58,37,30.06,29.78,13,0,21,0.01
2013-1-9,43.2,38.2,32.7,27.8,24.5,20.4,67,58,45,30.05,29.60,15,1,17,0.16
2013-1-10,38.3,22.0,7.0,28.1,15.9,0.5,88,77,58,30.08,29.55,11,1,12,0.01
2013-1-11,7.9,4.8,1.1,1.0,-1.8,-5.8,76,73,69,30.48,30.08,5,0,6,0.00
2013-1-12,6.9,3.0,-4.3,-0.2,-4.0,-11.6,77,72,66,30.58,30.42,3,0,4,0.00
2013-1-13,8.6,3.5,-2.8,1.9,-3.1,-10.4,79,73,68,30.64,30.50,3,0,4,0.00
2013-1-14,20.3,11.2,0.9,14.3,4.1,-6.3,79,73,65,30.58,30.37,5,0,7,0.00
2013-1-15,32.2,25.9,20.0,22.5,17.9,13.7,81,72,59,30.50,30.40,9,0,13,0.00
2013-1-16,39.5,32.7,25.6,24.2,19.2,14.1,71,58,36,30.47,30.36,13,0,17,0.00
2013-1-17,34.9,28.1,21.1,23.0,17.5,11.9,72,64,49,30.54,30.28,5,0,6,0.00
2013-1-18,47.6,36.9,27.2,23.4,17.0,8.9,70,46,21,30.30,30.04,14,0,15,0.19
2013-1-19,41.1,36.8,30.7,25.0,18.6,8.9,64,48,30,30.34,30.16,9,0,11,0.09
2013-1-20,37.9,23.6,19.5,22.4,15.1,13.0,79,70,36,30.53,30.27,12,0,12,0.01
2013-1-21,41.6,31.5,22.2,24.8,18.7,11.1,79,60,29,30.43,30.16,5,0,5,0.04
2013-1-22,34.3,27.5,23.8,20.1,14.5,5.8,70,58,35,30.29,30.15,3,0,4,0.01
2013-1-23,37.5,30.2,24.4,25.1,18.2,13.1,72,61,42,30.25,29.94,5,0,6,0.01
2013-1-24,41.9,37.1,30.1,28.6,24.1,17.8,74,60,41,30.18,29.92,10,0,14,0.03
2013-1-25,43.2,36.7,28.8,30.4,25.7,20.7,78,64,49,30.18,29.91,6,0,9,0.00
2013-1-26,44.5,36.0,30.0,31.0,27.8,25.9,88,73,50,29.92,29.69,7,0,10,0.02
2013-1-27,32.1,27.2,21.6,26.6,17.8,11.1,88,69,43,29.99,29.82,6,0,7,0.00
2013-1-28,30.3,25.0,21.4,16.9,12.5,9.4,71,59,43,30.01,29.82,11,0,11,0.00
2013-1-29,24.4,14.2,6.0,15.9,4.4,-5.2,78,64,55,30.38,29.82,10,0,13,0.00
2013-1-30,36.9,30.9,10.0,24.5,20.8,2.1,83,66,54,30.28,29.99,16,2,20,0.02
2013-1-31,39.8,37.2,34.6,28.0,24.6,22.3,71,60,52,30.15,30.06,13,1,14,0.02
2013-2-1,39.9,35.4,31.3,28.5,22.2,17.0,82,59,43,30.38,30.06,11,1,16,0.00
2013-2-2,40.6,33.3,27.0,23.4,19.9,17.9,70,58,41,30.48,30.27,8,0,12,0.00
2013-2-3,42.1,33.3,25.0,25.2,19.6,14.9,73,58,34,30.27,30.01,6,0,6,0.00
2013-2-4,40.9,37.0,32.5,27.2,22.6,15.0,70,56,43,30.01,29.94,12,1,13,0.00
2013-2-5,42.8,34.9,30.4,29.3,25.4,22.2,80,68,50,30.01,29.79,9,0,10,0.00
2013-2-6,39.6,32.3,27.6,27.3,19.6,14.5,80,60,36,30.17,29.84,9,0,14,0.00
2013-2-7,38.9,30.3,25.6,22.5,17.4,12.7,70,59,38,30.13,29.95,6,0,11,0.00
2013-2-8,36.6,27.8,22.9,21.3,17.5,14.3,74,65,46,30.09,29.98,5,0,6,0.00
2013-2-9,33.4,26.4,21.4,23.2,16.7,10.0,89,68,38,30.14,29.89,11,0,16,0.00
2013-2-10,27.0,21.1,13.3,20.0,13.7,6.9,83,73,55,30.35,30.14,9,0,10,0.00
2013-2-11,27.8,20.3,8.8,17.6,12.0,3.4,84,70,57,30.32,30.20,5,0,7,0.00
2013-2-12,37.6,33.0,23.3,24.9,20.7,15.0,72,60,48,30.24,30.07,11,1,15,0.08
2013-2-13,40.8,36.6,31.5,24.9,21.0,17.0,66,53,39,30.22,29.98,19,2,22,0.02
2013-2-14,31.5,25.6,18.8,23.7,18.6,14.2,84,75,60,30.48,30.22,10,0,14,0.00
2013-2-15,40.2,29.4,24.7,25.5,18.7,15.6,74,64,48,30.55,30.30,8,0,13,0.03
2013-2-16,42.8,32.5,26.0,26.9,23.0,18.6,77,68,45,30.31,29.79,10,0,10,0.02
2013-2-17,34.3,30.7,26.6,26.6,19.4,14.6,84,63,48,30.12,29.79,11,1,16,0.00
2013-2-18,30.9,24.3,17.2,22.2,16.2,9.1,86,72,51,30.24,29.97,5,0,6,0.00
2013-2-19,35.2,27.3,21.4,21.6,14.6,9.4,74,59,46,29.97,29.73,5,0,5,0.04
2013-2-20,33.1,25.0,16.5,24.5,17.5,10.2,85,73,58,30.01,29.86,6,0,9,0.03
2013-2-21,30.7,23.5,14.4,15.1,8.8,3.8,68,54,33,30.14,30.00,10,1,13,0.00
2013-2-22,39.3,31.4,24.1,21.3,15.2,10.6,65,52,33,30.04,29.63,11,1,12,0.00
2013-2-23,34.4,29.6,25.1,24.6,14.5,6.3,80,54,35,30.19,29.60,16,1,16,0.00
2013-2-24,34.0,27.2,19.2,14.2,11.0,7.3,64,51,35,30.33,30.17,11,1,13,0.00
2013-2-25,36.0,27.9,22.5,25.6,15.2,9.4,77,59,45,30.18,29.91,7,0,11,0.00
2013-2-26,33.7,28.4,23.9,16.2,13.1,8.8,65,53,39,30.34,30.05,13,1,13,0.00
2013-2-27,38.6,27.2,18.1,17.2,12.5,8.0,69,54,33,30.40,30.26,5,0,9,0.00
2013-2-28,41.9,32.5,23.9,27.0,19.1,11.7,78,58,39,30.39,30.29,7,0,10,0.01
2013-3-1,49.9,41.0,32.9,30.0,28.5,26.2,77,62,41,30.36,30.23,10,0,16,0.01
2013-3-2,50.7,40.2,33.4,30.5,27.5,23.5,74,61,35,30.33,29.88,6,0,7,0.00
2013-3-3,39.2,32.3,20.2,30.4,19.9,0.8,85,62,25,30.20,29.68,17,1,21,0.00
2013-3-4,24.8,19.1,14.0,14.2,9.2,4.5,82,66,45,30.50,30.20,9,0,10,0.00
2013-3-5,34.7,21.5,8.8,18.7,10.9,2.4,77,64,42,30.45,30.09,3,0,4,0.01
2013-3-6,38.2,29.1,21.9,29.0,21.3,14.9,88,73,52,30.10,29.74,6,0,9,0.01
2013-3-7,41.9,33.2,26.3,27.6,18.8,11.4,86,57,30,30.13,29.82,12,0,12,0.00
2013-3-8,42.6,30.6,22.7,19.9,15.1,9.1,70,54,30,30.09,29.93,5,0,10,0.00
2013-3-9,41.8,32.5,26.0,20.8,16.7,11.6,64,53,35,30.35,30.04,9,0,9,0.00
2013-3-10,46.2,35.7,27.6,26.3,17.6,6.4,69,50,23,30.40,30.11,13,0,13,0.00
2013-3-11,37.2,32.2,23.3,26.2,20.1,15.5,76,61,43,30.37,30.07,13,1,17,0.00
2013-3-12,44.3,31.0,19.7,27.5,20.4,14.1,81,66,42,30.39,30.12,5,0,6,0.00
2013-3-13,54.7,44.5,37.6,29.1,26.7,20.2,67,51,26,30.17,30.06,5,0,9,0.00
2013-3-14,59.3,45.6,38.8,32.4,27.9,21.6,65,51,28,30.18,29.89,6,0,7,0.00
2013-3-15,52.2,45.0,39.1,28.3,24.4,19.7,62,45,28,30.02,29.86,11,0,19,0.00
2013-3-16,49.2,40.0,34.3,26.3,22.7,14.0,69,52,24,30.01,29.61,4,0,7,0.00
2013-3-17,38.8,29.8,16.9,26.8,15.3,5.2,82,57,30,30.07,29.50,17,2,20,0.00
2013-3-18,41.1,27.6,16.1,21.9,11.5,1.4,81,54,22,30.08,29.95,16,1,18,0.00
2013-3-19,45.2,30.4,24.1,16.8,9.7,-1.1,73,45,15,30.36,30.06,10,1,15,0.00
2013-3-20,60.9,41.2,28.2,32.1,19.7,6.6,74,44,25,30.14,29.47,14,1,16,0.00
2013-3-21,42.8,32.3,23.8,24.4,10.6,-0.3,65,42,18,30.02,29.58,16,1,18,0.00
2013-3-22,31.3,23.3,18.1,15.5,9.9,6.6,70,57,39,30.36,29.99,10,1,12,0.00
2013-3-23,32.4,19.7,10.5,15.0,6.1,-4.7,76,57,26,30.49,30.35,11,0,11,0.00
2013-3-24,36.8,22.0,11.7,12.7,5.8,-3.1,77,54,21,30.51,30.34,6,0,9,0.00
2013-3-25,45.2,28.2,13.6,12.5,6.4,1.5,64,42,18,30.37,30.08,9,0,10,0.00
2013-3-26,53.3,37.0,27.9,19.5,15.1,10.7,58,42,22,30.09,29.92,8,0,11,0.00
2013-3-27,57.8,39.0,27.2,26.3,20.7,17.1,70,50,25,30.09,29.92,7,0,11,0.00
2013-3-28,58.9,42.8,31.3,32.3,27.8,23.1,81,58,29,30.11,29.95,6,0,9,0.00
2013-3-29,54.1,43.9,35.9,32.1,29.4,24.7,76,58,34,30.15,30.01,6,0,12,0.00
2013-3-30,58.9,43.9,34.4,28.3,24.5,18.6,71,49,24,30.24,30.09,10,0,12,0.00
2013-3-31,55.9,43.3,34.3,26.7,23.2,20.7,61,46,27,30.12,30.00,11,0,12,0.00
2013-4-1,60.1,41.2,29.5,25.9,22.0,15.6,74,50,21,30.16,29.97,8,0,10,0.00
2013-4-2,70.3,46.7,30.0,30.0,24.6,20.0,69,45,17,30.12,29.85,10,0,12,0.00
2013-4-3,58.0,48.4,41.1,31.8,29.0,22.9,61,48,27,30.05,29.86,10,0,11,0.00
2013-4-4,63.5,47.6,35.8,38.8,30.9,25.8,72,54,27,30.05,29.71,10,0,14,0.00
2013-4-5,61.5,48.4,41.6,38.2,29.1,21.5,76,50,24,29.84,29.64,13,1,14,0.00
2013-4-6,55.3,41.7,35.2,42.9,30.9,26.0,92,67,36,29.90,29.75,6,0,17,0.18
2013-4-7,47.7,36.3,26.0,44.6,30.9,22.2,93,81,58,29.86,29.55,9,0,9,0.18
2013-4-8,25.8,21.2,15.4,22.5,14.9,9.3,87,76,63,30.50,29.86,9,0,9,0.00
2013-4-9,39.1,23.2,11.2,24.1,14.4,5.3,80,70,42,30.61,30.32,5,0,7,0.19
2013-4-10,56.7,39.4,26.9,39.8,28.2,19.4,85,66,35,30.32,29.77,10,0,13,0.05
2013-4-11,52.0,41.9,34.0,31.6,22.4,13.5,72,48,23,30.00,29.77,12,1,15,0.00
2013-4-12,51.0,38.8,29.4,26.1,22.3,14.9,75,53,27,30.11,29.58,14,0,15,0.00
2013-4-13,49.4,39.1,29.1,31.6,19.2,-1.1,74,47,15,29.73,29.34,16,1,19,0.00
2013-4-14,33.2,26.8,19.9,24.2,18.6,13.0,87,71,55,30.12,29.70,11,1,13,0.20
2013-4-15,28.2,22.4,18.1,15.3,13.2,9.3,80,68,47,30.32,30.08,11,1,12,0.03
2013-4-16,30.3,22.6,17.2,16.4,13.0,8.9,80,67,44,30.48,30.26,11,1,14,0.01
2013-4-17,37.2,25.5,17.5,16.4,13.1,5.7,82,62,28,30.50,30.37,11,0,14,0.01
2013-4-18,51.6,34.8,21.1,23.6,16.7,10.8,69,50,27,30.37,30.16,12,1,14,0.00
2013-4-19,51.7,41.1,32.4,34.7,26.7,19.0,71,57,42,30.16,29.83,10,0,12,0.00
2013-4-20,60.4,45.4,38.2,30.9,25.5,18.6,73,48,23,30.00,29.81,15,1,18,0.00
2013-4-21,39.8,25.9,19.4,28.0,20.3,15.4,87,80,52,30.42,29.96,11,1,13,0.06
2013-4-22,39.5,25.0,19.1,21.1,15.2,7.9,85,68,33,30.59,30.42,6,0,9,0.31
2013-4-23,48.5,30.8,18.4,26.3,17.2,11.4,77,59,26,30.48,30.22,10,0,11,0.00
2013-4-24,63.9,41.7,26.7,26.4,20.9,13.2,78,48,17,30.36,29.92,12,1,15,0.00
2013-4-25,70.4,50.0,36.0,26.5,21.4,16.7,58,35,15,29.95,29.74,15,1,16,0.00
2013-4-26,76.5,55.9,41.6,28.9,25.0,19.4,55,33,14,30.10,29.92,12,1,14,0.00
2013-4-27,78.1,58.0,43.9,30.6,24.6,16.1,57,31,12,30.02,29.78,18,1,18,0.00
2013-4-28,68.8,51.0,39.5,37.0,28.0,17.1,68,44,18,29.93,29.74,15,1,17,0.00
2013-4-29,59.9,44.1,33.4,39.0,22.7,8.7,84,44,21,29.84,29.48,22,2,26,0.06
2013-4-30,41.3,31.3,25.6,26.4,17.2,8.1,82,57,35,30.38,29.78,12,0,14,0.01
2013-5-1,52.0,34.4,21.3,24.3,16.1,9.9,81,52,21,30.66,30.38,12,1,15,0.01
2013-5-2,71.1,46.0,27.8,23.2,16.1,9.7,62,35,10,30.66,30.22,10,1,11,0.00
2013-5-3,54.7,46.1,38.6,39.8,28.5,16.1,90,54,31,30.24,30.09,11,0,12,0.20
2013-5-4,53.3,42.7,38.6,44.8,38.2,35.0,92,85,51,30.32,30.18,11,0,12,0.12
2013-5-5,67.4,50.7,32.9,40.3,33.5,24.5,92,56,23,30.23,29.94,13,1,16,0.01
2013-5-6,74.4,53.7,38.5,38.5,31.4,23.0,78,48,18,29.99,29.75,12,0,13,0.00
2013-5-7,69.3,54.4,41.2,35.8,32.3,27.5,70,45,25,29.96,29.72,17,1,17,0.00
2013-5-8,76.8,56.1,39.9,39.4,32.8,21.1,74,46,16,30.08,29.91,11,0,12,0.00
2013-5-9,74.2,57.5,44.9,40.3,34.6,26.4,65,45,20,30.06,29.92,9,0,12,0.00
2013-5-10,70.3,54.7,43.2,38.0,33.8,27.1,73,47,24,30.33,29.96,12,1,13,0.00
2013-5-11,78.3,57.1,39.9,45.4,34.7,30.1,76,46,20,30.28,29.98,6,0,11,0.00
2013-5-12,83.4,65.2,50.8,43.3,38.5,29.3,63,40,15,29.98,29.74,10,0,14,0.00
2013-5-13,89.7,67.9,52.9,48.2,39.9,21.2,64,41,11,29.82,29.45,19,1,19,0.00
2013-5-14,75.3,56.2,38.9,38.5,28.1,16.9,70,38,13,29.92,29.76,13,1,15,0.00
2013-5-15,69.1,55.6,43.6,38.7,29.1,23.1,60,38,21,29.97,29.75,11,0,13,0.00
2013-5-16,66.0,52.5,41.9,42.6,38.3,35.0,82,60,34,29.80,29.70,6,0,10,0.00
2013-5-17,52.5,46.7,38.9,45.6,41.1,35.1,91,81,57,29.87,29.77,7,0,10,0.07
2013-5-18,64.2,50.3,44.9,47.0,42.7,38.1,93,77,39,29.95,29.80,9,0,10,0.05
2013-5-19,49.9,45.5,43.1,46.7,41.7,38.5,92,87,72,30.15,29.92,5,0,5,0.40
2013-5-20,65.5,49.5,42.8,49.7,43.4,39.0,92,81,39,30.21,30.01,11,0,11,0.19
2013-5-21,79.4,54.9,38.6,46.8,38.4,27.1,93,61,16,30.09,29.61,7,0,12,0.00
2013-5-22,61.8,51.7,42.2,46.4,39.5,35.3,88,64,43,29.78,29.52,12,0,12,0.20
2013-5-23,53.9,42.5,34.3,40.1,36.7,31.7,93,81,51,29.97,29.77,9,0,9,0.79
2013-5-24,68.4,49.5,36.3,37.3,32.8,23.2,92,60,20,29.96,29.77,12,1,16,0.02
2013-5-25,64.7,50.0,36.6,48.4,37.0,31.9,87,63,35,29.93,29.81,10,0,10,0.03
2013-5-26,67.3,50.2,38.8,45.2,39.2,34.1,91,69,37,29.93,29.76,6,0,8,0.16
2013-5-27,62.4,49.0,38.9,48.1,42.4,36.7,93,80,51,29.89,29.69,11,0,14,0.10
2013-5-28,55.6,49.2,45.4,50.0,43.8,39.1,93,82,59,29.72,29.63,10,0,10,0.24
2013-5-29,65.8,51.7,44.2,45.7,42.1,37.9,92,72,38,29.71,29.52,11,0,12,0.17
2013-5-30,59.2,49.9,44.1,41.9,34.5,29.1,89,57,36,29.92,29.65,12,1,21,0.00
2013-5-31,50.2,46.4,39.3,42.8,35.1,29.9,88,65,52,30.30,29.90,9,0,15,0.00
2013-6-1,65.3,50.2,35.5,44.9,37.2,30.4,92,65,29,30.31,29.92,11,0,13,0.00
2013-6-2,66.0,51.0,43.5,46.6,41.3,36.3,91,71,37,29.92,29.71,9,0,10,0.24
2013-6-3,58.0,44.6,41.1,43.7,40.1,36.9,92,85,47,30.12,29.76,14,1,14,0.41
2013-6-4,58.7,45.0,37.5,39.1,36.2,32.7,92,74,41,30.25,30.08,6,0,6,0.02
2013-6-5,78.1,54.2,35.5,47.0,38.2,31.8,90,60,23,30.21,29.89,9,0,10,0.00
2013-6-6,79.4,62.1,48.8,50.3,43.2,37.6,72,52,28,30.00,29.80,10,0,10,0.00
2013-6-7,81.8,64.2,51.0,50.9,43.8,36.4,76,51,24,29.81,29.58,13,0,19,0.00
2013-6-8,82.8,64.4,48.8,43.8,34.4,21.2,72,38,14,29.84,29.68,15,1,15,0.00
2013-6-9,90.5,65.4,47.6,44.0,33.8,21.1,66,36,9,29.82,29.53,13,1,13,0.00
2013-6-10,81.1,62.6,47.6,42.3,33.8,25.7,55,36,17,29.75,29.55,11,0,13,0.00
2013-6-11,67.1,56.4,50.1,53.0,46.5,38.4,92,71,46,29.91,29.58,7,0,12,0.17
2013-6-12,75.4,55.9,44.6,60.3,50.7,42.4,95,84,47,29.97,29.70,6,0,11,0.51
2013-6-13,57.2,50.8,44.5,53.4,45.8,37.7,94,83,64,30.00,29.73,6,0,8,0.12
2013-6-14,68.6,52.6,38.8,38.2,33.8,25.3,88,54,22,30.06,29.93,12,1,15,0.00
2013-6-15,78.3,56.1,37.9,42.4,33.7,25.6,78,48,17,30.05,29.83,10,1,11,0.00
2013-6-16,75.3,59.3,44.3,46.3,38.7,33.1,69,49,26,30.02,29.92,6,0,9,0.00
2013-6-17,78.8,58.6,47.0,59.2,47.7,38.1,92,69,24,30.00,29.76,6,0,7,0.31
2013-6-18,87.0,65.1,49.6,57.8,48.1,38.2,88,59,21,29.84,29.49,7,0,8,0.00
2013-6-19,74.2,56.7,47.9,56.4,47.6,41.5,89,73,47,29.75,29.41,15,0,17,0.06
2013-6-20,64.8,51.6,47.9,52.7,43.1,32.7,90,75,35,29.91,29.51,10,0,11,0.02
2013-6-21,62.7,55.2,51.4,51.3,41.3,36.1,91,60,42,29.97,29.81,8,0,8,0.01
2013-6-22,66.3,54.4,0.0,50.8,43.2,0.0,93,66,42,29.99,29.76,6,0,6,0.00
2013-6-23,73.3,57.1,41.5,49.8,42.4,36.7,86,61,31,29.94,29.58,9,0,11,0.00
2013-6-24,75.6,60.4,49.5,56.3,46.6,39.9,85,62,37,29.58,29.44,6,0,7,0.03
2013-6-25,77.6,60.5,48.6,51.6,46.7,35.5,92,65,22,29.76,29.54,10,0,13,0.03
2013-6-26,75.6,61.8,52.6,50.6,46.4,42.9,81,59,33,30.00,29.71,12,0,13,0.00
2013-6-27,87.4,66.8,50.8,56.7,47.6,40.0,81,55,22,30.09,29.95,10,0,13,0.00
2013-6-28,92.1,71.7,55.6,52.7,47.0,39.9,71,46,19,30.11,29.94,9,0,10,0.00
2013-6-29,84.9,69.4,57.0,62.2,52.9,46.4,83,58,30,29.99,29.86,7,0,9,0.00
2013-6-30,90.3,71.3,56.2,59.6,53.0,47.6,87,56,27,29.95,29.84,7,0,10,0.01
2013-7-1,91.8,74.4,59.2,63.0,54.0,43.8,85,54,21,30.01,29.86,10,0,11,0.00
2013-7-2,100.2,74.1,60.2,63.7,55.4,47.8,85,56,19,29.93,29.72,15,0,16,0.15
2013-7-3,94.5,78.3,66.4,55.6,49.2,41.3,67,39,16,29.83,29.60,12,1,16,0.00
2013-7-4,89.5,74.1,59.6,54.8,46.5,41.0,62,39,21,29.72,29.50,7,0,10,0.00
2013-7-5,84.9,68.1,56.6,53.5,42.9,32.0,72,42,22,29.68,29.54,12,0,13,0.00
2013-7-6,83.2,65.3,49.5,49.2,44.8,39.1,89,52,24,29.83,29.65,11,1,12,0.00
2013-7-7,87.2,66.5,51.3,57.7,48.4,37.8,88,57,21,29.81,29.62,10,0,12,0.04
2013-7-8,84.7,66.7,54.4,54.3,46.6,31.9,80,52,23,29.91,29.70,9,0,13,0.00
2013-7-9,89.3,68.1,50.7,45.2,38.7,26.8,69,39,12,30.03,29.88,9,0,10,0.00
2013-7-10,91.2,71.7,54.2,48.9,39.3,31.4,60,34,13,29.93,29.57,9,0,12,0.00
2013-7-11,88.2,72.3,55.4,50.8,40.3,33.1,78,34,15,29.73,29.52,11,1,13,0.01
2013-7-12,81.2,65.2,51.7,51.5,43.0,37.5,72,48,22,29.78,29.62,12,0,15,0.01
2013-7-13,82.8,66.4,51.3,42.8,38.2,27.6,68,39,17,29.96,29.70,12,1,15,0.00
2013-7-14,87.2,65.4,49.4,61.8,42.5,35.3,92,47,18,30.04,29.81,10,0,11,0.08
2013-7-15,97.8,71.4,54.7,48.7,39.5,28.2,59,36,9,29.91,29.61,17,1,17,0.00
2013-7-16,80.1,64.5,49.4,48.1,44.4,40.8,75,50,29,30.06,29.90,13,1,16,0.00
2013-7-17,86.3,64.7,55.4,64.1,56.8,48.4,93,79,37,30.00,29.78,12,0,12,0.62
2013-7-18,92.3,70.1,53.2,55.8,44.6,26.4,93,51,12,30.07,29.87,11,0,12,0.00
2013-7-19,92.5,71.6,56.0,50.2,37.6,26.0,64,34,10,29.95,29.78,13,1,13,0.00
2013-7-20,92.7,71.0,53.5,48.1,35.9,15.7,71,33,7,29.88,29.64,9,0,14,0.00
2013-7-21,92.7,74.0,56.9,41.7,31.8,22.5,44,23,9,29.73,29.58,9,0,10,0.00
2013-7-22,94.3,73.7,57.0,38.2,29.9,20.4,46,22,8,29.75,29.62,15,1,15,0.00
2013-7-23,94.0,73.3,59.3,42.2,33.8,23.5,45,26,9,29.92,29.73,7,0,11,0.00
2013-7-24,99.9,74.3,55.0,46.0,34.7,10.6,60,29,5,29.91,29.68,12,0,13,0.00
2013-7-25,88.8,70.9,55.0,52.7,46.4,38.4,78,46,19,29.98,29.83,12,0,12,0.00
2013-7-26,96.1,74.5,55.7,51.7,39.6,17.9,76,38,7,30.00,29.76,10,0,10,0.00
2013-7-27,92.1,74.1,59.9,43.6,31.6,19.0,49,23,9,29.80,29.60,8,0,10,0.00
2013-7-28,79.6,66.4,56.7,55.3,47.3,36.7,80,53,25,29.76,29.63,8,0,10,0.01
2013-7-29,76.0,61.5,52.6,51.7,45.8,43.6,79,58,35,29.93,29.69,9,0,11,0.00
2013-7-30,76.5,62.0,52.5,58.0,47.5,41.6,79,60,30,30.08,29.91,7,0,7,0.02
2013-7-31,90.5,67.3,49.5,51.2,42.2,32.6,80,46,14,30.12,29.84,12,0,12,0.00
2013-8-1,74.6,60.3,54.4,54.2,47.2,36.7,93,65,35,29.95,29.74,7,0,11,0.62
2013-8-2,68.8,56.8,48.2,59.4,49.7,42.0,95,79,39,30.01,29.75,5,0,7,1.11
2013-8-3,78.3,60.4,47.9,52.0,47.0,42.3,89,65,32,30.05,29.89,9,0,10,0.01
2013-8-4,83.2,64.8,50.8,51.0,43.5,33.0,81,52,18,30.00,29.82,9,0,9,0.00
2013-8-5,86.3,66.8,53.6,48.6,41.4,33.2,70,43,17,29.90,29.71,11,0,12,0.00
2013-8-6,86.7,65.2,51.1,51.5,44.6,36.5,82,52,19,29.89,29.80,6,0,9,0.00
2013-8-7,90.5,67.7,52.8,47.4,40.5,27.8,71,42,12,29.90,29.71,13,0,14,0.00
2013-8-8,81.1,65.0,52.3,53.7,46.8,40.8,80,54,27,29.93,29.77,11,0,11,0.00
2013-8-9,79.4,64.1,52.2,57.1,50.9,46.9,85,64,39,30.01,29.84,8,0,8,0.03
2013-8-10,81.4,64.2,51.1,55.5,48.0,31.3,87,60,23,29.97,29.81,8,0,9,0.00
2013-8-11,80.7,65.6,55.9,50.7,44.3,36.4,68,47,27,29.95,29.84,6,0,10,0.00
2013-8-12,82.8,70.1,52.0,48.9,44.5,40.7,74,43,27,29.96,29.84,6,1,10,0.00
2013-8-13,82.2,82.2,82.2,45.9,45.9,45.9,28,28,28,29.85,29.85,1,1,4,0.00
2013-8-14,82.2,82.2,82.2,45.9,45.9,45.9,28,28,28,29.85,29.85,1,1,4,0.00
2013-8-15,82.2,82.2,82.2,45.9,45.9,45.9,28,28,28,29.85,29.85,1,1,4,0.00
2013-8-16,82.2,82.2,82.2,45.9,45.9,45.9,28,28,28,29.85,29.85,1,1,4,0.00
2013-8-17,82.2,82.2,82.2,45.9,45.9,45.9,28,28,28,29.85,29.85,1,1,4,0.00
2013-8-18,93.8,81.3,66.4,45.9,43.0,34.7,37,26,14,29.85,29.68,11,1,11,0.00
2013-8-19,98.0,72.6,55.7,43.2,34.8,21.6,51,29,9,29.88,29.64,11,1,15,0.00
2013-8-20,94.9,70.9,56.6,43.7,36.5,30.8,52,30,12,29.86,29.65,9,0,12,0.00
2013-8-21,85.1,67.4,52.9,38.4,33.6,28.4,55,31,14,29.99,29.80,8,0,9,0.00
2013-8-22,84.9,67.7,53.6,52.2,40.9,32.6,58,39,23,29.96,29.71,19,0,19,0.00
2013-8-23,82.2,69.5,60.2,58.5,45.9,37.0,81,45,24,29.78,29.59,12,0,12,0.02
2013-8-24,77.2,65.2,54.5,62.5,47.6,39.1,86,55,31,29.80,29.67,10,0,13,0.18
2013-8-25,91.2,68.0,56.0,48.7,44.7,31.2,69,47,13,29.86,29.63,10,0,13,0.00
2013-8-26,84.0,66.5,54.5,59.5,45.6,37.7,84,49,24,29.91,29.71,13,0,13,0.05
2013-8-27,91.2,68.6,54.4,52.0,44.5,34.2,75,47,17,29.92,29.71,9,0,10,0.00
2013-8-28,84.0,64.4,56.3,62.0,48.7,40.8,92,59,27,29.93,29.70,10,0,12,0.16
2013-8-29,91.4,68.0,52.6,58.2,50.3,40.3,89,59,18,30.00,29.73,7,0,11,0.00
2013-8-30,88.8,67.7,55.0,50.5,45.0,35.5,75,49,18,29.93,29.74,10,0,12,0.00
2013-8-31,82.0,65.2,51.7,44.3,38.9,32.5,66,41,19,30.03,29.86,9,0,11,0.00
2013-9-1,90.5,67.1,50.5,42.9,36.6,31.2,64,36,14,29.99,29.73,9,0,12,0.00
2013-9-2,83.0,68.7,57.0,46.9,39.6,33.0,52,35,22,29.81,29.69,4,0,5,0.00
2013-9-3,84.7,68.9,58.3,56.6,44.8,39.2,77,44,22,29.98,29.80,10,0,12,0.01
2013-9-4,84.7,68.1,58.9,59.1,54.2,50.4,82,63,34,30.01,29.85,10,0,11,0.00
2013-9-5,87.6,67.1,56.6,59.1,51.6,46.3,87,60,29,29.95,29.77,12,0,13,0.03
2013-9-6,83.2,65.5,56.3,58.2,54.2,51.0,88,69,34,29.94,29.75,16,0,16,0.00
2013-9-7,77.9,63.4,54.2,60.4,55.5,51.3,94,77,45,29.96,29.78,6,0,10,0.55
2013-9-8,69.3,58.8,50.5,62.0,51.8,40.6,94,79,52,29.92,29.75,9,0,13,0.27
2013-9-9,74.4,59.8,50.4,52.8,45.6,40.8,76,61,32,29.94,29.82,8,0,11,0.01
2013-9-10,77.6,59.7,48.3,50.1,44.2,39.0,84,60,29,30.07,29.91,7,0,8,0.00
2013-9-11,79.6,62.6,51.1,47.0,42.8,35.6,73,51,22,30.16,29.99,9,0,11,0.00
2013-9-12,81.4,62.3,49.5,49.1,44.3,39.1,80,55,26,30.16,29.86,11,0,14,0.00
2013-9-13,81.1,65.7,52.6,50.7,45.7,40.5,77,51,27,29.86,29.62,13,0,13,0.00
2013-9-14,70.8,63.2,55.4,48.8,46.3,43.5,70,54,42,29.98,29.67,11,0,13,0.00
2013-9-15,78.5,61.6,48.6,50.7,46.0,41.9,81,59,29,30.04,29.74,7,0,7,0.00
2013-9-16,84.9,66.5,55.6,50.0,45.9,38.4,75,51,24,29.77,29.55,12,1,18,0.00
2013-9-17,58.7,53.2,49.2,54.5,46.1,40.4,93,78,52,29.73,29.57,5,0,8,0.32
2013-9-18,58.7,49.7,43.8,46.6,40.4,31.9,93,73,39,30.02,29.58,12,0,12,0.06
2013-9-19,63.4,50.3,44.3,39.9,36.5,31.2,78,61,32,30.16,30.00,7,0,9,0.00
2013-9-20,75.3,53.3,38.2,41.8,33.2,25.0,80,51,18,30.04,29.66,9,0,9,0.00
2013-9-21,84.0,60.0,44.2,45.7,32.6,22.9,66,38,15,29.67,29.38,7,0,11,0.00
2013-9-22,63.4,53.2,44.2,47.0,39.6,34.5,86,61,39,29.68,29.43,6,0,12,0.03
2013-9-23,65.3,49.9,41.1,39.0,33.6,24.6,84,57,23,29.94,29.64,11,0,15,0.00
2013-9-24,51.1,44.0,39.2,43.4,36.4,30.5,92,76,56,29.90,29.74,4,0,4,0.73
2013-9-25,44.6,40.5,35.8,42.0,38.2,33.7,93,91,85,29.79,29.66,6,0,9,0.56
2013-9-26,39.6,35.9,31.6,36.9,33.7,29.5,93,92,88,30.10,29.79,6,0,6,0.50
2013-9-27,50.2,38.9,30.6,34.4,30.8,26.9,93,75,44,30.10,29.91,9,0,11,0.00
2013-9-28,57.2,48.8,41.6,38.5,34.6,29.9,70,58,45,29.93,29.67,11,1,13,0.00
2013-9-29,55.9,48.4,44.1,41.1,33.9,27.3,78,58,42,29.71,29.45,12,1,15,0.01
2013-9-30,56.5,45.9,37.2,42.3,31.9,19.3,90,61,27,29.94,29.45,16,1,21,0.12
2013-10-1,52.2,42.8,34.4,34.8,28.8,21.2,76,59,32,30.01,29.88,10,0,14,0.00
2013-10-2,49.4,40.5,32.1,34.2,27.8,23.0,79,62,39,30.18,29.94,6,0,11,0.01
2013-10-3,39.9,32.9,31.0,34.5,30.0,28.3,93,89,81,30.46,29.93,10,0,12,0.18
2013-10-4,40.5,33.0,29.0,33.9,29.8,26.0,91,88,74,30.60,30.46,2,0,3,0.22
2013-10-5,52.9,39.4,29.1,32.4,26.6,16.5,87,63,27,30.49,30.32,13,0,13,0.03
2013-10-6,59.3,45.3,34.1,39.3,32.7,28.0,82,63,39,30.33,29.98,4,0,4,0.00
2013-10-7,61.3,49.4,39.9,39.6,31.9,24.8,67,51,27,29.99,29.64,8,0,10,0.00
2013-10-8,50.2,41.5,32.9,32.1,26.7,19.1,74,57,31,30.00,29.75,11,0,12,0.00
2013-10-9,46.8,37.6,30.7,34.0,29.4,25.0,84,73,53,30.15,29.88,5,0,7,0.00
2013-10-10,52.9,40.2,31.5,33.8,28.4,20.1,86,66,29,29.90,29.73,7,0,10,0.00
2013-10-11,46.2,39.3,31.5,28.8,24.5,18.0,70,56,34,30.11,29.84,10,0,10,0.00
2013-10-12,44.3,35.4,29.0,30.0,25.0,21.2,78,66,46,30.19,30.08,3,0,4,0.00
2013-10-13,45.8,37.9,30.1,32.6,29.4,25.3,87,72,56,30.25,30.14,6,0,7,0.00
2013-10-14,41.5,36.1,29.5,33.4,29.4,24.7,91,77,55,30.51,30.23,5,0,7,0.05
2013-10-15,45.1,34.1,27.0,30.4,25.0,22.2,87,71,51,30.51,30.21,5,0,5,0.00
2013-10-16,40.9,35.2,30.4,33.3,26.7,18.0,89,72,48,30.27,30.15,5,0,7,0.02
2013-10-17,41.5,34.4,31.0,35.4,30.7,28.1,91,86,67,30.35,30.21,10,0,10,0.05
2013-10-18,48.2,36.9,27.5,32.3,26.9,22.7,89,69,37,30.37,30.10,5,0,9,0.01
2013-10-19,55.3,47.7,37.8,31.5,24.7,19.0,63,42,27,30.12,29.89,12,0,14,0.00
2013-10-20,51.4,42.8,35.0,35.8,31.9,27.6,86,66,42,30.14,29.96,7,0,7,0.01
2013-10-21,53.2,44.8,38.0,35.7,33.3,29.6,77,64,47,30.21,30.08,5,0,5,0.00
2013-10-22,57.6,45.6,37.6,36.2,31.1,21.8,78,59,27,30.22,30.07,7,0,7,0.00
2013-10-23,54.4,41.8,33.8,35.0,29.9,25.3,78,63,42,30.25,30.11,5,0,7,0.00
2013-10-24,49.9,39.9,32.5,36.0,32.1,28.0,89,74,53,30.30,30.12,4,0,5,0.00
2013-10-25,52.0,41.3,33.1,36.5,30.1,26.1,79,65,44,30.31,30.14,2,0,3,0.00
2013-10-26,55.0,42.0,32.1,31.4,25.9,19.5,76,54,28,30.35,30.07,3,0,3,0.00
2013-10-27,50.4,37.5,25.4,28.2,24.1,20.4,88,60,39,30.25,29.81,14,1,18,0.00
2013-10-28,25.4,18.2,16.2,22.4,13.7,10.9,88,82,76,30.42,30.23,9,0,9,0.00
2013-10-29,25.3,20.7,14.9,20.8,15.6,9.5,87,80,72,30.35,30.06,3,0,4,0.00
2013-10-30,38.9,31.1,21.1,29.4,23.9,17.0,90,75,59,30.07,29.95,6,0,6,0.04
2013-10-31,41.5,37.6,34.6,30.1,26.7,21.5,76,65,54,30.09,29.89,13,1,16,0.26
2013-11-1,45.4,38.1,31.6,29.6,27.4,22.5,80,66,42,30.23,30.09,10,0,17,0.12
2013-11-2,47.9,37.4,31.6,33.7,28.6,24.9,88,71,45,30.15,29.59,11,0,13,0.01
2013-11-3,36.5,31.6,25.1,28.7,20.0,13.3,83,63,43,30.01,29.69,8,0,11,0.00
2013-11-4,28.8,25.1,21.4,21.6,19.4,14.7,86,79,65,30.23,30.01,4,0,5,0.01
2013-11-5,34.4,28.3,22.1,23.8,14.6,6.8,75,57,33,30.29,30.15,9,0,11,0.00
2013-11-6,38.3,33.5,30.9,29.1,24.4,18.1,89,70,47,30.39,30.14,13,0,13,0.01
2013-11-7,47.7,37.7,30.1,35.8,29.2,21.7,85,72,52,30.39,29.66,16,0,16,0.10
2013-11-8,39.9,36.6,33.5,31.0,25.6,20.1,82,64,54,30.16,29.76,8,0,10,0.01
2013-11-9,40.1,33.6,28.1,26.3,22.9,18.2,75,65,45,30.29,30.15,7,0,7,0.00
2013-11-10,43.1,34.9,29.3,32.2,26.8,23.8,81,72,58,30.28,30.11,3,0,3,0.00
2013-11-11,39.3,32.2,27.9,32.0,27.6,23.9,90,83,72,30.54,30.27,2,0,3,0.00
2013-11-12,43.6,35.2,26.7,34.9,29.3,24.2,92,80,59,30.51,30.28,2,0,2,0.01
2013-11-13,47.4,42.6,37.2,32.7,28.2,21.6,74,57,43,30.28,30.10,11,0,13,0.00
2013-11-14,42.3,36.7,32.1,25.2,22.2,18.2,65,56,38,30.16,29.77,6,0,10,0.00
2013-11-15,40.2,36.0,33.1,21.7,18.0,14.9,60,48,36,29.77,29.35,12,0,15,0.00
2013-11-16,40.3,33.1,27.6,28.7,20.7,13.3,78,60,40,29.61,29.22,13,0,13,0.00
2013-11-17,37.2,30.8,25.6,21.9,16.1,10.9,65,54,40,30.03,29.61,13,0,13,0.00
2013-11-18,50.4,37.7,28.7,20.4,15.2,10.0,59,41,20,30.02,29.72,15,0,15,0.00
2013-11-19,52.3,43.9,33.4,31.2,24.8,17.5,67,47,34,29.72,29.53,13,1,17,0.00
2013-11-20,32.5,11.0,3.0,23.6,3.5,-3.8,81,71,62,30.68,29.65,9,0,9,0.00
2013-11-21,14.6,7.3,0.7,7.6,1.0,-6.2,80,75,71,30.91,30.66,3,0,3,0.00
2013-11-22,22.2,14.5,8.8,12.6,6.7,1.3,76,71,64,30.94,30.81,3,0,3,0.00
2013-11-23,24.5,16.5,10.4,15.5,9.6,4.3,80,74,65,30.84,30.47,3,0,3,0.00
2013-11-24,30.4,24.2,16.9,22.4,16.1,10.4,79,71,61,30.47,30.30,4,0,4,0.01
2013-11-25,35.6,28.4,22.7,24.4,20.2,16.0,79,71,59,30.52,30.36,1,0,4,0.00
2013-11-26,33.7,28.5,21.6,25.7,21.8,16.6,84,76,69,30.51,30.21,2,0,3,0.00
2013-11-27,39.8,33.5,27.2,28.4,23.9,19.8,76,68,51,30.21,30.11,6,0,6,0.01
2013-11-28,35.3,28.3,21.3,25.5,20.5,15.8,84,72,62,30.26,30.14,2,0,2,0.00
2013-11-29,39.5,32.8,24.5,25.5,21.2,16.4,74,62,51,30.27,30.15,3,0,4,0.00
2013-11-30,43.1,38.8,35.5,30.6,28.2,23.7,72,66,55,30.22,30.11,5,0,5,0.01
2013-12-1,43.1,40.9,37.0,30.9,28.9,24.8,68,62,53,30.12,29.74,12,2,15,0.00
2013-12-2,42.2,42.2,42.2,30.9,30.9,30.9,64,64,64,29.74,29.74,4,4,12,0.00
2013-12-3,42.2,15.2,-3.7,30.9,6.4,-11.6,74,68,64,30.60,29.74,10,2,12,0.00
2013-12-4,2.6,-1.9,-9.6,-6.3,-10.1,-18.4,72,67,57,30.64,30.55,7,0,7,0.00
2013-12-5,-1.6,-7.2,-12.0,-9.4,-15.4,-20.7,72,67,62,30.76,30.60,3,0,4,0.00
2013-12-6,-7.9,-13.0,-18.7,-15.9,-22.8,-28.6,67,60,54,30.89,30.75,3,0,3,0.00
2013-12-7,-11.0,-16.1,-21.4,-21.0,-25.9,-31.5,64,60,55,30.87,30.59,2,0,2,0.00
2013-12-8,3.0,-6.2,-16.1,-4.8,-14.3,-25.2,73,67,62,30.68,30.55,4,0,4,0.00
2013-12-9,1.1,-3.6,-5.6,-6.6,-11.1,-13.4,72,69,67,30.62,30.54,0,0,0,0.00
2013-12-10,24.5,22.2,20.5,15.1,13.0,10.4,74,67,61,30.43,30.28,11,0,11,0.00
2013-12-11,25.8,23.1,20.0,17.3,14.1,10.5,76,68,55,30.48,30.41,4,0,6,0.00
2013-12-12,31.2,25.8,23.6,19.9,16.9,13.8,76,69,55,30.43,30.10,6,0,6,0.00
2013-12-13,36.3,31.9,25.4,25.5,22.1,17.9,77,67,54,30.33,30.08,10,0,13,0.07
2013-12-14,43.1,36.8,27.9,28.4,24.0,20.1,76,60,48,30.36,30.13,11,0,15,0.09
2013-12-15,49.2,38.0,31.0,26.7,23.4,18.5,69,57,30,30.22,30.02,10,0,11,0.01
2013-12-16,44.2,37.9,30.6,24.5,20.6,16.3,66,50,34,30.33,30.04,14,0,15,0.00
2013-12-17,44.6,38.3,31.0,24.1,19.7,15.0,60,47,33,30.32,29.86,8,0,8,0.00
2013-12-18,43.2,35.7,12.6,23.8,18.2,5.7,83,51,29,30.03,29.71,11,0,12,0.00
2013-12-19,12.3,4.9,2.6,5.9,-2.5,-6.2,77,71,62,30.45,30.02,7,0,9,0.00
2013-12-20,23.5,13.2,3.4,12.7,5.9,-2.6,82,73,55,30.30,29.73,4,0,4,0.00
2013-12-21,29.3,24.9,16.9,20.3,16.5,12.1,88,71,58,30.06,29.71,9,0,10,0.00
2013-12-22,27.6,20.0,15.2,20.8,13.9,9.1,86,77,68,30.43,30.02,3,0,4,0.00
2013-12-23,41.3,29.8,17.2,31.6,23.1,10.1,87,76,62,30.40,29.90,13,0,14,0.01
2013-12-24,33.4,30.5,26.4,15.5,13.2,10.9,60,48,39,30.50,30.33,13,1,16,0.00
2013-12-25,40.8,27.2,20.6,18.4,12.0,6.6,63,53,26,30.57,30.35,15,0,19,0.00
2013-12-26,47.6,39.1,34.4,30.3,25.7,15.1,70,59,41,30.39,30.15,6,0,6,0.00
2013-12-27,45.8,37.7,34.0,29.0,23.8,15.7,67,57,44,30.25,29.92,4,0,5,0.01
2013-12-28,41.5,21.1,12.9,21.9,10.9,3.4,76,65,39,30.60,29.92,14,0,14,0.00
2013-12-29,34.7,27.9,17.5,22.1,15.9,9.2,77,61,43,30.56,30.11,11,1,18,0.00
2013-12-30,38.5,35.2,31.5,28.9,23.3,19.1,71,62,48,30.24,29.96,9,0,10,0.01
2013-12-31,41.9,37.9,34.4,31.5,27.1,21.1,74,65,56,30.12,29.92,15,1,15,0.01
2014-1-1,36.0,32.4,27.0,21.5,17.2,14.1,64,53,41,30.39,30.12,13,0,13,0.00
2014-1-2,43.2,35.4,27.0,26.5,18.9,12.5,62,51,34,30.35,29.73,10,0,16,0.00